sensor_id;sensor_type;location;lat;lon;timestamp;pressure;altitude;pressure_sealevel;temperature;humidity
71772;BME280;59606;52.138;5.424;2023-03-14T00:00:56;98973.16;;;9.79;98.06
71772;BME280;59606;52.138;5.424;2023-03-14T00:03:22;98976.00;;;9.76;98.39
71772;BME280;59606;52.138;5.424;2023-03-14T00:05:50;98982.16;;;9.75;98.45
71772;BME280;59606;52.138;5.424;2023-03-14T00:08:16;98984.09;;;9.73;98.74
71772;BME280;59606;52.138;5.424;2023-03-14T00:10:44;98979.72;;;9.73;98.65
71772;BME280;59606;52.138;5.424;2023-03-14T00:13:10;98983.94;;;9.74;99.37
71772;BME280;59606;52.138;5.424;2023-03-14T00:15:36;98978.59;;;9.76;99.18
71772;BME280;59606;52.138;5.424;2023-03-14T00:18:04;98975.19;;;9.75;99.29
71772;BME280;59606;52.138;5.424;2023-03-14T00:20:30;98977.69;;;9.77;98.98
71772;BME280;59606;52.138;5.424;2023-03-14T00:22:57;98971.53;;;9.78;99.01
71772;BME280;59606;52.138;5.424;2023-03-14T00:25:23;98974.94;;;9.78;98.58
71772;BME280;59606;52.138;5.424;2023-03-14T00:27:51;98969.50;;;9.81;98.74
71772;BME280;59606;52.138;5.424;2023-03-14T00:30:18;98961.56;;;9.83;98.17
71772;BME280;59606;52.138;5.424;2023-03-14T00:32:44;98971.72;;;9.86;97.42
71772;BME280;59606;52.138;5.424;2023-03-14T00:35:11;98961.34;;;9.86;96.72
71772;BME280;59606;52.138;5.424;2023-03-14T00:37:37;98963.06;;;9.85;96.12
71772;BME280;59606;52.138;5.424;2023-03-14T00:40:06;98982.13;;;9.86;95.91
71772;BME280;59606;52.138;5.424;2023-03-14T00:42:34;98982.00;;;9.87;94.75
71772;BME280;59606;52.138;5.424;2023-03-14T00:45:01;98988.03;;;9.88;93.67
71772;BME280;59606;52.138;5.424;2023-03-14T00:47:27;98978.31;;;9.90;93.38
71772;BME280;59606;52.138;5.424;2023-03-14T00:49:53;98979.25;;;9.89;93.33
71772;BME280;59606;52.138;5.424;2023-03-14T00:52:20;98978.44;;;9.88;93.13
71772;BME280;59606;52.138;5.424;2023-03-14T00:54:47;98982.72;;;9.89;92.83
71772;BME280;59606;52.138;5.424;2023-03-14T00:57:13;98978.44;;;9.88;92.11
71772;BME280;59606;52.138;5.424;2023-03-14T00:59:40;98974.19;;;9.87;92.29
71772;BME280;59606;52.138;5.424;2023-03-14T01:02:08;98987.19;;;9.87;92.28
71772;BME280;59606;52.138;5.424;2023-03-14T01:04:35;98988.03;;;9.88;92.22
71772;BME280;59606;52.138;5.424;2023-03-14T01:07:03;99004.69;;;9.85;92.48
71772;BME280;59606;52.138;5.424;2023-03-14T01:09:30;98992.66;;;9.84;92.67
71772;BME280;59606;52.138;5.424;2023-03-14T01:11:56;98998.00;;;9.83;93.57
71772;BME280;59606;52.138;5.424;2023-03-14T01:14:23;98990.44;;;9.80;93.35
71772;BME280;59606;52.138;5.424;2023-03-14T01:16:49;99001.19;;;9.75;93.90
71772;BME280;59606;52.138;5.424;2023-03-14T01:19:16;98999.94;;;9.70;94.46
71772;BME280;59606;52.138;5.424;2023-03-14T01:21:42;99001.09;;;9.65;94.69
71772;BME280;59606;52.138;5.424;2023-03-14T01:24:11;99007.63;;;9.60;95.94
71772;BME280;59606;52.138;5.424;2023-03-14T01:26:37;99015.78;;;9.55;95.82
71772;BME280;59606;52.138;5.424;2023-03-14T01:29:04;99006.59;;;9.51;96.41
71772;BME280;59606;52.138;5.424;2023-03-14T01:31:30;99015.81;;;9.44;98.18
71772;BME280;59606;52.138;5.424;2023-03-14T01:33:57;99007.69;;;9.37;98.57
71772;BME280;59606;52.138;5.424;2023-03-14T01:36:23;99009.72;;;9.34;98.76
71772;BME280;59606;52.138;5.424;2023-03-14T01:38:50;99003.94;;;9.30;99.61
71772;BME280;59606;52.138;5.424;2023-03-14T01:41:20;98996.38;;;9.27;100.00
71772;BME280;59606;52.138;5.424;2023-03-14T01:43:47;98986.94;;;9.26;100.00
71772;BME280;59606;52.138;5.424;2023-03-14T01:46:32;99002.88;;;9.21;100.00
71772;BME280;59606;52.138;5.424;2023-03-14T01:49:07;98997.09;;;9.18;100.00
71772;BME280;59606;52.138;5.424;2023-03-14T01:54:18;98993.81;;;9.16;100.00
71772;BME280;59606;52.138;5.424;2023-03-14T01:57:02;98974.09;;;9.13;100.00
71772;BME280;59606;52.138;5.424;2023-03-14T01:59:31;98970.66;;;9.13;100.00
71772;BME280;59606;52.138;5.424;2023-03-14T02:01:59;98964.66;;;9.12;100.00
71772;BME280;59606;52.138;5.424;2023-03-14T02:04:29;98969.72;;;9.14;100.00
71772;BME280;59606;52.138;5.424;2023-03-14T02:07:05;98979.16;;;9.15;100.00
71772;BME280;59606;52.138;5.424;2023-03-14T02:09:32;98975.72;;;9.14;100.00
71772;BME280;59606;52.138;5.424;2023-03-14T02:11:58;98971.34;;;9.15;100.00
71772;BME280;59606;52.138;5.424;2023-03-14T02:14:30;98973.13;;;9.14;100.00
71772;BME280;59606;52.138;5.424;2023-03-14T02:16:58;98985.19;;;9.15;100.00
71772;BME280;59606;52.138;5.424;2023-03-14T02:19:49;98967.00;;;9.15;100.00
71772;BME280;59606;52.138;5.424;2023-03-14T02:22:17;98970.44;;;9.16;100.00
71772;BME280;59606;52.138;5.424;2023-03-14T02:27:17;98957.53;;;9.14;100.00
71772;BME280;59606;52.138;5.424;2023-03-14T02:29:55;98952.25;;;9.16;100.00
71772;BME280;59606;52.138;5.424;2023-03-14T02:32:24;98955.75;;;9.15;100.00
71772;BME280;59606;52.138;5.424;2023-03-14T02:34:56;98954.13;;;9.14;100.00
71772;BME280;59606;52.138;5.424;2023-03-14T02:37:28;98962.06;;;9.12;99.78
71772;BME280;59606;52.138;5.424;2023-03-14T02:39:58;98960.28;;;9.13;99.68
71772;BME280;59606;52.138;5.424;2023-03-14T02:42:24;98954.25;;;9.12;99.98
71772;BME280;59606;52.138;5.424;2023-03-14T02:47:37;98961.91;;;9.14;100.00
71772;BME280;59606;52.138;5.424;2023-03-14T02:50:12;98950.69;;;9.13;99.60
71772;BME280;59606;52.138;5.424;2023-03-14T02:52:40;98942.09;;;9.13;99.91
71772;BME280;59606;52.138;5.424;2023-03-14T02:55:07;98946.47;;;9.12;100.00
71772;BME280;59606;52.138;5.424;2023-03-14T02:57:34;98937.81;;;9.12;99.63
71772;BME280;59606;52.138;5.424;2023-03-14T03:00:02;98932.63;;;9.12;99.78
71772;BME280;59606;52.138;5.424;2023-03-14T03:02:31;98936.19;;;9.11;100.00
71772;BME280;59606;52.138;5.424;2023-03-14T03:04:57;98937.13;;;9.10;99.66
71772;BME280;59606;52.138;5.424;2023-03-14T03:07:24;98940.56;;;9.10;100.00
71772;BME280;59606;52.138;5.424;2023-03-14T03:09:51;98937.81;;;9.12;100.00
71772;BME280;59606;52.138;5.424;2023-03-14T03:12:17;98932.63;;;9.12;100.00
71772;BME280;59606;52.138;5.424;2023-03-14T03:14:43;98919.63;;;9.12;100.00
71772;BME280;59606;52.138;5.424;2023-03-14T03:17:10;98930.97;;;9.11;100.00
71772;BME280;59606;52.138;5.424;2023-03-14T03:19:37;98931.13;;;9.09;100.00
71772;BME280;59606;52.138;5.424;2023-03-14T03:22:03;98922.50;;;9.09;99.91
71772;BME280;59606;52.138;5.424;2023-03-14T03:24:30;98922.38;;;9.10;100.00
71772;BME280;59606;52.138;5.424;2023-03-14T03:26:56;98918.00;;;9.11;100.00
71772;BME280;59606;52.138;5.424;2023-03-14T03:29:22;98912.13;;;9.09;100.00
71772;BME280;59606;52.138;5.424;2023-03-14T03:31:49;98915.53;;;9.09;100.00
71772;BME280;59606;52.138;5.424;2023-03-14T03:34:16;98910.44;;;9.08;100.00
71772;BME280;59606;52.138;5.424;2023-03-14T03:36:42;98917.31;;;9.09;99.95
71772;BME280;59606;52.138;5.424;2023-03-14T03:39:08;98912.94;;;9.09;100.00
71772;BME280;59606;52.138;5.424;2023-03-14T03:41:35;98907.75;;;9.09;99.99
71772;BME280;59606;52.138;5.424;2023-03-14T03:44:02;98897.34;;;9.09;100.00
71772;BME280;59606;52.138;5.424;2023-03-14T03:46:28;98904.31;;;9.09;100.00
71772;BME280;59606;52.138;5.424;2023-03-14T03:48:56;98893.06;;;9.08;99.77
71772;BME280;59606;52.138;5.424;2023-03-14T03:51:23;98901.72;;;9.09;99.21
71772;BME280;59606;52.138;5.424;2023-03-14T03:53:49;98898.16;;;9.10;100.00
71772;BME280;59606;52.138;5.424;2023-03-14T03:56:16;98901.59;;;9.10;98.96
71772;BME280;59606;52.138;5.424;2023-03-14T03:58:42;98895.56;;;9.10;98.64
71772;BME280;59606;52.138;5.424;2023-03-14T04:01:10;98898.84;;;9.12;98.56
71772;BME280;59606;52.138;5.424;2023-03-14T04:03:37;98894.50;;;9.12;98.88
71772;BME280;59606;52.138;5.424;2023-03-14T04:06:10;98896.16;;;9.13;98.65
71772;BME280;59606;52.138;5.424;2023-03-14T04:08:37;98898.59;;;9.15;98.81
71772;BME280;59606;52.138;5.424;2023-03-14T04:11:04;98901.94;;;9.17;97.92
71772;BME280;59606;52.138;5.424;2023-03-14T04:13:30;98892.34;;;9.17;98.11
71772;BME280;59606;52.138;5.424;2023-03-14T04:15:57;98906.97;;;9.18;98.54
71772;BME280;59606;52.138;5.424;2023-03-14T04:18:24;98904.28;;;9.20;97.86
71772;BME280;59606;52.138;5.424;2023-03-14T04:20:54;98911.94;;;9.21;97.94
71772;BME280;59606;52.138;5.424;2023-03-14T04:23:22;98909.22;;;9.23;98.01
71772;BME280;59606;52.138;5.424;2023-03-14T04:25:52;98905.81;;;9.23;97.30
71772;BME280;59606;52.138;5.424;2023-03-14T04:28:19;98908.16;;;9.26;96.99
71772;BME280;59606;52.138;5.424;2023-03-14T04:30:45;98915.81;;;9.27;96.98
71772;BME280;59606;52.138;5.424;2023-03-14T04:33:12;98903.53;;;9.29;96.82
71772;BME280;59606;52.138;5.424;2023-03-14T04:35:44;98915.59;;;9.30;96.54
71772;BME280;59606;52.138;5.424;2023-03-14T04:38:11;98902.59;;;9.30;96.31
71772;BME280;59606;52.138;5.424;2023-03-14T04:40:39;98903.31;;;9.32;96.63
71772;BME280;59606;52.138;5.424;2023-03-14T04:43:07;98902.34;;;9.33;96.34
71772;BME280;59606;52.138;5.424;2023-03-14T04:45:35;98897.00;;;9.35;96.71
71772;BME280;59606;52.138;5.424;2023-03-14T04:48:02;98887.56;;;9.34;95.85
71772;BME280;59606;52.138;5.424;2023-03-14T04:50:28;98892.63;;;9.35;96.04
71772;BME280;59606;52.138;5.424;2023-03-14T04:52:55;98890.03;;;9.35;96.11
71772;BME280;59606;52.138;5.424;2023-03-14T04:55:21;98880.50;;;9.36;95.83
71772;BME280;59606;52.138;5.424;2023-03-14T04:57:49;98884.59;;;9.38;96.40
71772;BME280;59606;52.138;5.424;2023-03-14T05:00:16;98870.78;;;9.38;95.95
71772;BME280;59606;52.138;5.424;2023-03-14T05:02:46;98879.53;;;9.37;96.13
71772;BME280;59606;52.138;5.424;2023-03-14T05:05:13;98879.53;;;9.37;96.70
71772;BME280;59606;52.138;5.424;2023-03-14T05:07:39;98884.59;;;9.38;96.16
71772;BME280;59606;52.138;5.424;2023-03-14T05:10:06;98894.16;;;9.38;96.79
71772;BME280;59606;52.138;5.424;2023-03-14T05:12:32;98887.56;;;9.34;97.57
71772;BME280;59606;52.138;5.424;2023-03-14T05:14:59;98878.25;;;9.31;97.77
71772;BME280;59606;52.138;5.424;2023-03-14T05:17:25;98885.59;;;9.26;99.02
71772;BME280;59606;52.138;5.424;2023-03-14T05:19:51;98877.47;;;9.19;99.69
71772;BME280;59606;52.138;5.424;2023-03-14T05:22:19;98880.31;;;9.16;100.00
71772;BME280;59606;52.138;5.424;2023-03-14T05:24:45;98870.28;;;9.12;100.00
71772;BME280;59606;52.138;5.424;2023-03-14T05:27:13;98868.88;;;9.08;100.00
71772;BME280;59606;52.138;5.424;2023-03-14T05:29:39;98867.47;;;9.04;100.00
71772;BME280;59606;52.138;5.424;2023-03-14T05:32:06;98874.56;;;9.02;100.00
71772;BME280;59606;52.138;5.424;2023-03-14T05:34:32;98870.22;;;9.02;100.00
71772;BME280;59606;52.138;5.424;2023-03-14T05:36:59;98870.31;;;9.01;100.00
71772;BME280;59606;52.138;5.424;2023-03-14T05:39:25;98873.97;;;8.98;100.00
71772;BME280;59606;52.138;5.424;2023-03-14T05:41:51;98869.88;;;8.95;100.00
71772;BME280;59606;52.138;5.424;2023-03-14T05:44:20;98870.00;;;8.94;100.00
71772;BME280;59606;52.138;5.424;2023-03-14T05:46:46;98875.19;;;8.94;100.00
71772;BME280;59606;52.138;5.424;2023-03-14T05:49:13;98870.94;;;8.93;100.00
71772;BME280;59606;52.138;5.424;2023-03-14T05:51:39;98877.19;;;8.90;100.00
71772;BME280;59606;52.138;5.424;2023-03-14T05:54:06;98869.53;;;8.89;100.00
71772;BME280;59606;52.138;5.424;2023-03-14T05:56:32;98871.19;;;8.90;100.00
71772;BME280;59606;52.138;5.424;2023-03-14T05:58:59;98871.28;;;8.88;100.00
71772;BME280;59606;52.138;5.424;2023-03-14T06:01:29;98861.84;;;8.87;100.00
71772;BME280;59606;52.138;5.424;2023-03-14T06:03:55;98864.59;;;8.86;100.00
71772;BME280;59606;52.138;5.424;2023-03-14T06:06:22;98863.78;;;8.85;100.00
71772;BME280;59606;52.138;5.424;2023-03-14T06:08:48;98862.91;;;8.85;100.00
71772;BME280;59606;52.138;5.424;2023-03-14T06:11:16;98858.69;;;8.84;100.00
71772;BME280;59606;52.138;5.424;2023-03-14T06:13:42;98861.28;;;8.84;100.00
71772;BME280;59606;52.138;5.424;2023-03-14T06:16:09;98870.72;;;8.85;100.00
71772;BME280;59606;52.138;5.424;2023-03-14T06:18:35;98870.72;;;8.85;100.00
71772;BME280;59606;52.138;5.424;2023-03-14T06:21:02;98872.25;;;8.87;100.00
71772;BME280;59606;52.138;5.424;2023-03-14T06:23:28;98869.78;;;8.86;100.00
71772;BME280;59606;52.138;5.424;2023-03-14T06:25:57;98870.47;;;8.88;100.00
71772;BME280;59606;52.138;5.424;2023-03-14T06:28:23;98880.03;;;8.87;100.00
71772;BME280;59606;52.138;5.424;2023-03-14T06:30:51;98890.31;;;8.89;100.00
71772;BME280;59606;52.138;5.424;2023-03-14T06:33:18;98895.50;;;8.89;100.00
71772;BME280;59606;52.138;5.424;2023-03-14T06:35:44;98905.06;;;8.88;100.00
71772;BME280;59606;52.138;5.424;2023-03-14T06:38:11;98914.63;;;8.88;100.00
71772;BME280;59606;52.138;5.424;2023-03-14T06:40:37;98935.63;;;8.85;100.00
71772;BME280;59606;52.138;5.424;2023-03-14T06:43:04;98935.75;;;8.83;100.00
71772;BME280;59606;52.138;5.424;2023-03-14T06:45:30;98947.19;;;8.81;100.00
71772;BME280;59606;52.138;5.424;2023-03-14T06:47:57;98967.28;;;8.79;100.00
71772;BME280;59606;52.138;5.424;2023-03-14T06:50:23;98974.81;;;8.70;100.00
71772;BME280;59606;52.138;5.424;2023-03-14T06:52:50;98983.53;;;8.58;100.00
71772;BME280;59606;52.138;5.424;2023-03-14T06:55:17;98994.66;;;8.49;100.00
71772;BME280;59606;52.138;5.424;2023-03-14T06:57:46;99011.63;;;8.42;100.00
71772;BME280;59606;52.138;5.424;2023-03-14T07:00:13;99021.47;;;8.37;100.00
71772;BME280;59606;52.138;5.424;2023-03-14T07:02:41;99025.47;;;8.30;100.00
71772;BME280;59606;52.138;5.424;2023-03-14T07:05:09;99030.88;;;8.26;100.00
71772;BME280;59606;52.138;5.424;2023-03-14T07:07:36;99031.25;;;8.22;100.00
71772;BME280;59606;52.138;5.424;2023-03-14T07:10:03;99041.94;;;8.17;100.00
71772;BME280;59606;52.138;5.424;2023-03-14T07:12:29;99045.56;;;8.15;100.00
71772;BME280;59606;52.138;5.424;2023-03-14T07:14:56;99055.94;;;8.15;100.00
71772;BME280;59606;52.138;5.424;2023-03-14T07:17:28;99051.72;;;8.14;100.00
71772;BME280;59606;52.138;5.424;2023-03-14T07:19:54;99066.22;;;8.16;100.00
71772;BME280;59606;52.138;5.424;2023-03-14T07:22:21;99082.84;;;8.14;100.00
71772;BME280;59606;52.138;5.424;2023-03-14T07:24:48;99081.75;;;8.05;100.00
71772;BME280;59606;52.138;5.424;2023-03-14T07:27:14;99099.53;;;7.98;100.00
71772;BME280;59606;52.138;5.424;2023-03-14T07:29:40;99112.59;;;7.97;100.00
71772;BME280;59606;52.138;5.424;2023-03-14T07:32:07;99119.66;;;7.95;100.00
71772;BME280;59606;52.138;5.424;2023-03-14T07:34:34;99132.72;;;7.93;100.00
71772;BME280;59606;52.138;5.424;2023-03-14T07:37:00;99134.72;;;7.90;100.00
71772;BME280;59606;52.138;5.424;2023-03-14T07:39:27;99148.09;;;7.84;100.00
71772;BME280;59606;52.138;5.424;2023-03-14T07:41:53;99162.22;;;7.79;100.00
71772;BME280;59606;52.138;5.424;2023-03-14T07:44:20;99166.78;;;7.76;100.00
71772;BME280;59606;52.138;5.424;2023-03-14T07:46:47;99180.91;;;7.72;100.00
71772;BME280;59606;52.138;5.424;2023-03-14T07:49:14;99187.00;;;7.71;100.00
71772;BME280;59606;52.138;5.424;2023-03-14T07:51:40;99201.44;;;7.75;100.00
71772;BME280;59606;52.138;5.424;2023-03-14T07:54:07;99208.47;;;7.73;100.00
71772;BME280;59606;52.138;5.424;2023-03-14T07:56:33;99226.94;;;7.68;100.00
71772;BME280;59606;52.138;5.424;2023-03-14T07:59:00;99228.69;;;7.68;100.00
71772;BME280;59606;52.138;5.424;2023-03-14T08:01:27;99255.56;;;7.67;100.00
71772;BME280;59606;52.138;5.424;2023-03-14T08:03:53;99274.31;;;7.57;100.00
71772;BME280;59606;52.138;5.424;2023-03-14T08:06:20;99296.78;;;7.44;100.00
71772;BME280;59606;52.138;5.424;2023-03-14T08:08:46;99306.94;;;7.22;100.00
71772;BME280;59606;52.138;5.424;2023-03-14T08:11:13;99321.31;;;7.13;100.00
71772;BME280;59606;52.138;5.424;2023-03-14T08:13:39;99330.91;;;6.98;100.00
71772;BME280;59606;52.138;5.424;2023-03-14T08:16:06;99333.97;;;6.91;100.00
71772;BME280;59606;52.138;5.424;2023-03-14T08:18:33;99349.06;;;6.84;99.93
71772;BME280;59606;52.138;5.424;2023-03-14T08:20:59;99351.63;;;6.84;100.00
71772;BME280;59606;52.138;5.424;2023-03-14T08:23:26;99359.97;;;6.89;100.00
71772;BME280;59606;52.138;5.424;2023-03-14T08:25:52;99389.13;;;6.78;98.88
71772;BME280;59606;52.138;5.424;2023-03-14T08:28:19;99389.03;;;6.66;98.51
71772;BME280;59606;52.138;5.424;2023-03-14T08:30:46;99406.81;;;6.57;97.99
71772;BME280;59606;52.138;5.424;2023-03-14T08:33:13;99412.88;;;6.56;97.49
71772;BME280;59606;52.138;5.424;2023-03-14T08:35:39;99432.03;;;6.54;98.25
71772;BME280;59606;52.138;5.424;2023-03-14T08:38:06;99432.22;;;6.51;98.13
71772;BME280;59606;52.138;5.424;2023-03-14T08:40:32;99448.28;;;6.56;98.53
71772;BME280;59606;52.138;5.424;2023-03-14T08:42:59;99448.94;;;6.59;98.09
71772;BME280;59606;52.138;5.424;2023-03-14T08:45:25;99474.91;;;6.72;97.90
71772;BME280;59606;52.138;5.424;2023-03-14T08:47:52;99473.69;;;6.78;97.68
71772;BME280;59606;52.138;5.424;2023-03-14T08:50:18;99489.69;;;6.84;97.36
71772;BME280;59606;52.138;5.424;2023-03-14T08:52:45;99493.47;;;6.79;95.68
71772;BME280;59606;52.138;5.424;2023-03-14T08:55:11;99506.41;;;6.79;95.15
71772;BME280;59606;52.138;5.424;2023-03-14T08:57:38;99517.41;;;6.82;94.68
71772;BME280;59606;52.138;5.424;2023-03-14T09:00:05;99531.75;;;6.88;94.30
71772;BME280;59606;52.138;5.424;2023-03-14T09:02:38;99545.59;;;6.87;93.11
71772;BME280;59606;52.138;5.424;2023-03-14T09:05:05;99553.66;;;6.97;93.75
71772;BME280;59606;52.138;5.424;2023-03-14T09:07:32;99563.00;;;6.99;93.18
71772;BME280;59606;52.138;5.424;2023-03-14T09:09:58;99569.81;;;7.00;92.67
71772;BME280;59606;52.138;5.424;2023-03-14T09:12:25;99589.16;;;7.09;93.24
71772;BME280;59606;52.138;5.424;2023-03-14T09:14:51;99595.16;;;7.09;92.69
71772;BME280;59606;52.138;5.424;2023-03-14T09:17:18;99601.47;;;7.05;91.51
71772;BME280;59606;52.138;5.424;2023-03-14T09:19:44;99612.28;;;6.98;90.20
71772;BME280;59606;52.138;5.424;2023-03-14T09:22:10;99620.97;;;6.97;89.99
71772;BME280;59606;52.138;5.424;2023-03-14T09:24:37;99643.78;;;6.90;88.21
71772;BME280;59606;52.138;5.424;2023-03-14T09:27:03;99645.25;;;6.80;88.91
71772;BME280;59606;52.138;5.424;2023-03-14T09:29:30;99635.94;;;6.77;88.41
71772;BME280;59606;52.138;5.424;2023-03-14T09:31:58;99649.53;;;6.81;88.21
71772;BME280;59606;52.138;5.424;2023-03-14T09:34:25;99662.84;;;6.89;88.51
71772;BME280;59606;52.138;5.424;2023-03-14T09:36:51;99659.25;;;6.92;87.14
71772;BME280;59606;52.138;5.424;2023-03-14T09:39:18;99678.84;;;6.96;87.53
71772;BME280;59606;52.138;5.424;2023-03-14T09:41:47;99690.69;;;7.00;86.71
71772;BME280;59606;52.138;5.424;2023-03-14T09:44:25;99694.03;;;7.02;85.96
71772;BME280;59606;52.138;5.424;2023-03-14T09:46:57;99704.78;;;7.10;86.18
71772;BME280;59606;52.138;5.424;2023-03-14T09:49:39;99712.13;;;7.18;86.51
71772;BME280;59606;52.138;5.424;2023-03-14T09:52:19;99721.44;;;7.20;86.13
71772;BME280;59606;52.138;5.424;2023-03-14T09:54:52;99732.84;;;7.18;84.02
71772;BME280;59606;52.138;5.424;2023-03-14T09:57:22;99745.78;;;7.18;83.95
71772;BME280;59606;52.138;5.424;2023-03-14T09:59:51;99750.56;;;7.24;84.67
71772;BME280;59606;52.138;5.424;2023-03-14T10:02:24;99749.50;;;7.28;84.63
71772;BME280;59606;52.138;5.424;2023-03-14T10:04:53;99762.81;;;7.36;84.95
71772;BME280;59606;52.138;5.424;2023-03-14T10:07:28;99767.38;;;7.47;85.00
71772;BME280;59606;52.138;5.424;2023-03-14T10:09:56;99775.97;;;7.47;84.59
71772;BME280;59606;52.138;5.424;2023-03-14T10:12:36;99793.84;;;7.52;84.55
71772;BME280;59606;52.138;5.424;2023-03-14T10:15:07;99808.28;;;7.42;82.75
71772;BME280;59606;52.138;5.424;2023-03-14T10:17:49;99832.13;;;7.32;85.29
71772;BME280;59606;52.138;5.424;2023-03-14T10:20:39;99846.34;;;7.25;84.90
71772;BME280;59606;52.138;5.424;2023-03-14T10:25:44;99864.16;;;7.16;86.52
71772;BME280;59606;52.138;5.424;2023-03-14T10:28:26;99875.94;;;7.21;85.93
71772;BME280;59606;52.138;5.424;2023-03-14T10:30:54;99876.78;;;7.22;84.71
71772;BME280;59606;52.138;5.424;2023-03-14T10:35:56;99890.53;;;7.38;84.96
71772;BME280;59606;52.138;5.424;2023-03-14T10:38:29;99898.97;;;7.42;84.07
71772;BME280;59606;52.138;5.424;2023-03-14T10:40:56;99910.34;;;7.39;84.50
71772;BME280;59606;52.138;5.424;2023-03-14T10:43:32;99932.91;;;7.37;83.31
71772;BME280;59606;52.138;5.424;2023-03-14T10:46:09;99932.81;;;7.39;83.04
71772;BME280;59606;52.138;5.424;2023-03-14T10:48:37;99942.44;;;7.37;83.21
71772;BME280;59606;52.138;5.424;2023-03-14T10:51:10;99960.22;;;7.43;83.95
71772;BME280;59606;52.138;5.424;2023-03-14T10:54:03;99967.25;;;7.41;81.28
71772;BME280;59606;52.138;5.424;2023-03-14T10:56:35;100001.94;;;7.22;81.01
71772;BME280;59606;52.138;5.424;2023-03-14T10:59:04;100004.03;;;7.16;81.58
71772;BME280;59606;52.138;5.424;2023-03-14T11:11:48;100044.72;;;6.98;79.98
71772;BME280;59606;52.138;5.424;2023-03-14T11:14:26;100045.53;;;6.98;78.43
71772;BME280;59606;52.138;5.424;2023-03-14T11:17:09;100061.25;;;6.95;76.58
71772;BME280;59606;52.138;5.424;2023-03-14T11:22:23;100078.25;;;7.32;74.88
71772;BME280;59606;52.138;5.424;2023-03-14T11:27:41;100105.50;;;7.87;73.97
71772;BME280;59606;52.138;5.424;2023-03-14T11:33:14;100110.19;;;7.96;69.74
71772;BME280;59606;52.138;5.424;2023-03-14T11:35:49;100121.91;;;8.03;72.02
71772;BME280;59606;52.138;5.424;2023-03-14T11:40:57;100134.84;;;8.19;69.98
71772;BME280;59606;52.138;5.424;2023-03-14T11:46:04;100153.41;;;8.43;67.11
71772;BME280;59606;52.138;5.424;2023-03-14T11:48:51;100183.63;;;8.44;66.02
71772;BME280;59606;52.138;5.424;2023-03-14T11:51:25;100164.97;;;8.38;64.29
71772;BME280;59606;52.138;5.424;2023-03-14T11:54:12;100175.44;;;8.36;64.51
71772;BME280;59606;52.138;5.424;2023-03-14T11:56:52;100174.09;;;8.45;63.58
71772;BME280;59606;52.138;5.424;2023-03-14T11:59:24;100178.09;;;8.50;61.83
71772;BME280;59606;52.138;5.424;2023-03-14T12:10:59;100209.91;;;8.54;61.71
71772;BME280;59606;52.138;5.424;2023-03-14T12:13:29;100212.66;;;8.67;60.88
71772;BME280;59606;52.138;5.424;2023-03-14T12:16:00;100214.16;;;8.71;60.28
71772;BME280;59606;52.138;5.424;2023-03-14T12:18:35;100235.19;;;8.66;58.70
71772;BME280;59606;52.138;5.424;2023-03-14T12:21:07;100236.53;;;8.73;60.15
71772;BME280;59606;52.138;5.424;2023-03-14T12:23:45;100234.75;;;8.74;58.39
71772;BME280;59606;52.138;5.424;2023-03-14T12:26:26;100235.69;;;8.73;58.25
71772;BME280;59606;52.138;5.424;2023-03-14T12:39:37;100263.94;;;8.63;54.89
71772;BME280;59606;52.138;5.424;2023-03-14T12:42:17;100260.81;;;8.72;56.04
71772;BME280;59606;52.138;5.424;2023-03-14T12:44:50;100268.50;;;8.74;54.85
71772;BME280;59606;52.138;5.424;2023-03-14T12:49:52;100283.38;;;9.02;55.06
71772;BME280;59606;52.138;5.424;2023-03-14T12:52:33;100286.00;;;9.02;54.86
71772;BME280;59606;52.138;5.424;2023-03-14T12:55:14;100287.69;;;8.87;54.26
71772;BME280;59606;52.138;5.424;2023-03-14T12:58:08;100290.28;;;8.71;52.70
71772;BME280;59606;52.138;5.424;2023-03-14T13:00:41;100302.53;;;8.54;52.62
71772;BME280;59606;52.138;5.424;2023-03-14T13:03:19;100319.94;;;8.36;52.29
71772;BME280;59606;52.138;5.424;2023-03-14T13:05:59;100319.59;;;8.26;52.68
71772;BME280;59606;52.138;5.424;2023-03-14T13:08:43;100332.41;;;8.29;52.39
71772;BME280;59606;52.138;5.424;2023-03-14T13:11:15;100330.53;;;8.48;53.44
71772;BME280;59606;52.138;5.424;2023-03-14T13:13:46;100342.06;;;8.74;53.58
71772;BME280;59606;52.138;5.424;2023-03-14T13:16:19;100360.00;;;8.79;52.03
71772;BME280;59606;52.138;5.424;2023-03-14T13:18:48;100352.97;;;8.65;50.31
71772;BME280;59606;52.138;5.424;2023-03-14T13:21:24;100364.78;;;8.71;50.34
71772;BME280;59606;52.138;5.424;2023-03-14T13:23:58;100367.63;;;8.82;52.16
71772;BME280;59606;52.138;5.424;2023-03-14T13:26:32;100372.13;;;8.94;52.29
71772;BME280;59606;52.138;5.424;2023-03-14T13:29:08;100366.69;;;8.99;50.96
71772;BME280;59606;52.138;5.424;2023-03-14T13:31:35;100366.19;;;8.92;50.71
71772;BME280;59606;52.138;5.424;2023-03-14T13:34:06;100390.97;;;8.98;51.53
71772;BME280;59606;52.138;5.424;2023-03-14T13:36:35;100385.88;;;9.12;50.06
71772;BME280;59606;52.138;5.424;2023-03-14T13:39:02;100393.69;;;9.12;49.58
71772;BME280;59606;52.138;5.424;2023-03-14T13:41:31;100400.81;;;9.09;50.75
71772;BME280;59606;52.138;5.424;2023-03-14T13:44:02;100409.50;;;9.08;49.15
71772;BME280;59606;52.138;5.424;2023-03-14T13:46:30;100414.47;;;9.12;48.59
71772;BME280;59606;52.138;5.424;2023-03-14T13:49:03;100431.66;;;8.99;47.97
71772;BME280;59606;52.138;5.424;2023-03-14T13:51:31;100430.97;;;8.80;49.80
71772;BME280;59606;52.138;5.424;2023-03-14T13:54:02;100441.19;;;8.83;49.06
71772;BME280;59606;52.138;5.424;2023-03-14T13:56:32;100467.50;;;8.77;51.33
71772;BME280;59606;52.138;5.424;2023-03-14T13:58:59;100447.66;;;8.76;49.99
71772;BME280;59606;52.138;5.424;2023-03-14T14:01:34;100456.44;;;8.73;51.93
71772;BME280;59606;52.138;5.424;2023-03-14T14:04:22;100462.88;;;8.66;51.89
71772;BME280;59606;52.138;5.424;2023-03-14T14:06:59;100471.97;;;8.57;53.14
71772;BME280;59606;52.138;5.424;2023-03-14T14:09:29;100481.69;;;8.54;53.87
71772;BME280;59606;52.138;5.424;2023-03-14T14:12:07;100478.72;;;8.44;54.89
71772;BME280;59606;52.138;5.424;2023-03-14T14:14:52;100502.50;;;8.35;54.33